Powersville, Georgia
Current Conditions -  °F | °C
As of 5:53 AM on Wednesday 22 Oct 2014 (Local Time) from KMCN Reporting Station
Clear Clear  
Wind Chill: 46°   Ceiling: Unl
Heat Index: 46°   Visibility: 9mi
Dew Point: 46°   Wind: 3mph
Humidity: 100%   Direction: 270°W
Pressure: 30.03"   Gusts: NA
Location:  32.6425°N, 83.775°W
Report Text: KMCN 220953Z AUTO 27003KT 9SM CLR 08/08 A3003 RMK AO2 SLP167 T00780078 TSNO
Loading
Personal Weather Stations






























Interactive Weather Map New forecast layout! Learn more

10-Day Weather Forecast

Advertisements
Track Severe Weather on mobile